createdAt,value
2018-09-29T00:02:12.423Z,38.58
2018-09-29T00:04:41.288Z,39.53
2018-09-29T00:07:10.072Z,40.34
2018-09-29T00:09:38.933Z,41.58
2018-09-29T00:12:07.852Z,42.31
2018-09-29T00:14:36.637Z,42.57
2018-09-29T00:17:05.555Z,42.85
2018-09-29T00:19:34.380Z,43.27
2018-09-29T00:22:03.346Z,43.03
2018-09-29T00:24:32.247Z,43.58
2018-09-29T00:27:01.068Z,44.32
2018-09-29T00:29:30.097Z,43.58
2018-09-29T00:31:58.937Z,43.71
2018-09-29T00:34:27.779Z,44.06
2018-09-29T00:36:56.560Z,43.59
2018-09-29T00:39:25.355Z,43.70
2018-09-29T00:41:54.167Z,44.12
2018-09-29T00:44:22.980Z,44.28
2018-09-29T00:46:51.796Z,42.71
2018-09-29T00:49:20.652Z,41.82
2018-09-29T00:51:49.475Z,43.39
2018-09-29T00:54:18.377Z,44.09
2018-09-29T00:56:47.240Z,40.88
2018-09-29T00:59:16.047Z,41.26
2018-09-29T01:01:44.896Z,43.81
2018-09-29T01:04:13.767Z,43.28
2018-09-29T01:06:42.570Z,44.26
2018-09-29T01:09:11.366Z,44.87
2018-09-29T01:11:40.483Z,45.08
2018-09-29T01:14:09.660Z,44.92
2018-09-29T01:16:38.448Z,44.62
2018-09-29T01:19:07.307Z,43.36
2018-09-29T01:21:36.125Z,42.06
2018-09-29T01:24:04.947Z,41.97
2018-09-29T01:26:33.837Z,40.83
2018-09-29T01:29:02.723Z,40.60
2018-09-29T01:31:31.605Z,40.03
2018-09-29T01:34:00.464Z,40.54
2018-09-29T01:36:29.354Z,40.69
2018-09-29T01:38:58.167Z,40.04
2018-09-29T01:41:27.036Z,39.61
2018-09-29T01:43:55.826Z,40.56
2018-09-29T01:46:24.699Z,39.52
2018-09-29T01:48:53.568Z,39.48
2018-09-29T01:51:22.336Z,40.16
2018-09-29T01:53:57.640Z,39.52
2018-09-29T01:56:26.408Z,38.44
2018-09-29T01:58:55.239Z,39.22
2018-09-29T02:01:24.107Z,39.21
2018-09-29T02:03:52.895Z,39.77
2018-09-29T02:06:21.683Z,39.51
2018-09-29T02:08:50.469Z,40.04
2018-09-29T02:11:19.304Z,40.63
2018-09-29T02:13:48.153Z,40.87
2018-09-29T02:16:17.005Z,40.57
2018-09-29T02:18:45.851Z,41.19
2018-09-29T02:21:14.735Z,41.23
2018-09-29T02:23:43.556Z,40.52
2018-09-29T02:26:12.424Z,40.83
2018-09-29T02:28:41.663Z,40.17
2018-09-29T02:31:10.542Z,39.79
2018-09-29T02:33:39.342Z,40.36
2018-09-29T02:36:08.167Z,40.18
2018-09-29T02:38:37.010Z,40.06
2018-09-29T02:41:06.000Z,40.03
2018-09-29T02:43:34.828Z,40.22
2018-09-29T02:46:03.601Z,40.09
2018-09-29T02:48:32.537Z,39.48
2018-09-29T02:51:01.376Z,38.67
2018-09-29T02:53:30.228Z,39.61
2018-09-29T02:55:59.084Z,39.26
2018-09-29T02:58:27.888Z,39.38
2018-09-29T03:00:56.726Z,39.66
2018-09-29T03:03:25.517Z,39.80
2018-09-29T03:05:54.323Z,40.56
2018-09-29T03:08:23.184Z,39.94
2018-09-29T03:10:51.991Z,40.30
2018-09-29T03:13:20.891Z,39.96
2018-09-29T03:15:50.515Z,39.98
2018-09-29T03:18:19.344Z,40.89
2018-09-29T03:20:48.232Z,40.36
2018-09-29T03:23:17.100Z,41.13
2018-09-29T03:25:46.108Z,40.39
2018-09-29T03:28:15.185Z,40.99
2018-09-29T03:30:43.996Z,40.76
2018-09-29T03:33:12.816Z,41.49
2018-09-29T03:35:41.652Z,41.89
2018-09-29T03:38:10.508Z,41.84
2018-09-29T03:40:39.352Z,41.21
2018-09-29T03:43:08.243Z,41.01
2018-09-29T03:45:37.180Z,41.20
2018-09-29T03:48:06.064Z,41.38
2018-09-29T03:50:34.889Z,41.46
2018-09-29T03:53:03.849Z,42.45
2018-09-29T03:55:32.830Z,43.09
2018-09-29T03:58:01.649Z,42.84
2018-09-29T04:00:30.494Z,43.09
2018-09-29T04:02:59.410Z,43.07
2018-09-29T04:05:28.260Z,43.65
2018-09-29T04:07:57.052Z,43.90
2018-09-29T04:10:25.844Z,43.52
2018-09-29T04:12:54.762Z,43.56
2018-09-29T04:15:23.655Z,44.34
2018-09-29T04:17:52.499Z,44.39
2018-09-29T04:20:21.362Z,44.40
2018-09-29T04:22:50.170Z,44.82
2018-09-29T04:25:18.961Z,44.65
2018-09-29T04:27:47.735Z,45.06
2018-09-29T04:30:16.564Z,45.29
2018-09-29T04:32:45.503Z,45.55
2018-09-29T04:35:14.396Z,46.07
2018-09-29T04:37:43.273Z,46.02
2018-09-29T04:40:12.483Z,46.17
2018-09-29T04:42:41.394Z,45.92
2018-09-29T04:45:10.240Z,46.63
2018-09-29T04:47:39.331Z,46.02
2018-09-29T04:50:08.088Z,46.81
2018-09-29T04:52:36.873Z,46.33
2018-09-29T04:55:05.971Z,46.26
2018-09-29T04:57:34.736Z,46.02
2018-09-29T05:00:04.947Z,46.20
2018-09-29T05:02:33.747Z,46.76
2018-09-29T05:05:02.557Z,46.42
2018-09-29T05:07:31.364Z,45.82
2018-09-29T05:10:00.239Z,43.89
2018-09-29T05:12:29.004Z,42.65
2018-09-29T05:14:57.861Z,41.97
2018-09-29T05:17:26.760Z,42.69
2018-09-29T05:19:55.671Z,41.71
2018-09-29T05:22:24.532Z,42.06
2018-09-29T05:24:53.389Z,44.08
2018-09-29T05:27:22.415Z,42.11
2018-09-29T05:29:51.204Z,41.67
2018-09-29T05:32:20.085Z,41.66
2018-09-29T05:34:48.959Z,41.78
2018-09-29T05:37:17.768Z,41.15
2018-09-29T05:39:53.406Z,40.05
2018-09-29T05:42:22.389Z,40.21
2018-09-29T05:44:51.307Z,39.86
2018-09-29T05:47:20.424Z,38.73
2018-09-29T05:49:49.241Z,39.15
2018-09-29T05:52:18.808Z,38.70
2018-09-29T05:54:47.600Z,38.82
2018-09-29T05:57:16.493Z,37.56
2018-09-29T05:59:45.352Z,38.07
2018-09-29T06:02:14.171Z,38.55
2018-09-29T06:04:42.965Z,38.43
2018-09-29T06:07:11.901Z,38.97
2018-09-29T06:09:40.825Z,38.26
2018-09-29T06:12:09.656Z,37.90
2018-09-29T06:14:38.512Z,37.43
2018-09-29T06:17:07.315Z,37.09
2018-09-29T06:19:36.193Z,36.09
2018-09-29T06:22:05.075Z,36.52
2018-09-29T06:24:33.899Z,35.90
2018-09-29T06:27:02.879Z,36.04
2018-09-29T06:29:31.692Z,34.79
2018-09-29T06:32:00.653Z,35.36
2018-09-29T06:34:31.449Z,34.46
2018-09-29T06:37:00.381Z,34.70
2018-09-29T06:39:29.218Z,35.31
2018-09-29T06:41:58.357Z,33.89
2018-09-29T06:44:27.308Z,34.51
2018-09-29T06:46:56.135Z,34.44
2018-09-29T06:49:24.985Z,34.02
2018-09-29T06:51:54.040Z,33.75
2018-09-29T06:54:22.928Z,33.29
2018-09-29T06:56:52.035Z,32.59
2018-09-29T06:59:20.828Z,32.75
2018-09-29T07:01:49.664Z,33.31
2018-09-29T07:04:18.574Z,33.09
2018-09-29T07:06:49.196Z,32.73
2018-09-29T07:09:17.987Z,33.13
2018-09-29T07:11:46.883Z,33.15
2018-09-29T07:14:15.763Z,33.63
2018-09-29T07:16:44.743Z,33.63
2018-09-29T07:19:14.015Z,33.83
2018-09-29T07:21:42.909Z,33.55
2018-09-29T07:24:11.825Z,32.94
2018-09-29T07:26:40.732Z,32.84
2018-09-29T07:29:09.651Z,32.28
2018-09-29T07:31:38.671Z,32.20
2018-09-29T07:34:08.117Z,32.34
2018-09-29T07:36:36.958Z,31.95
2018-09-29T07:39:08.443Z,31.76
2018-09-29T07:41:37.402Z,30.72
2018-09-29T07:44:06.338Z,31.09
2018-09-29T07:46:35.154Z,31.38
2018-09-29T07:49:04.047Z,32.46
2018-09-29T07:51:33.179Z,31.88
2018-09-29T07:54:02.072Z,32.99
2018-09-29T07:56:30.995Z,31.44
2018-09-29T07:59:00.078Z,31.67
2018-09-29T08:01:29.046Z,31.76
2018-09-29T08:03:57.862Z,31.25
2018-09-29T08:06:26.793Z,31.03
2018-09-29T08:08:55.817Z,32.01
2018-09-29T08:11:24.667Z,31.57
2018-09-29T08:13:53.609Z,31.99
2018-09-29T08:16:22.445Z,31.28
2018-09-29T08:18:51.238Z,30.90
2018-09-29T08:21:20.277Z,30.94
2018-09-29T08:23:49.505Z,31.08
2018-09-29T08:26:18.680Z,31.07
2018-09-29T08:28:47.482Z,30.20
2018-09-29T08:31:16.521Z,30.93
2018-09-29T08:33:45.297Z,30.82
2018-09-29T08:36:14.163Z,30.29
2018-09-29T08:38:43.057Z,30.52
2018-09-29T08:41:11.871Z,29.61
2018-09-29T08:43:40.684Z,29.65
2018-09-29T08:46:09.659Z,29.53
2018-09-29T08:48:38.457Z,29.33
2018-09-29T08:51:07.299Z,30.38
2018-09-29T08:53:36.217Z,29.87
2018-09-29T08:56:05.186Z,29.74
2018-09-29T08:58:33.993Z,30.30
2018-09-29T09:01:03.024Z,30.12
2018-09-29T09:03:31.943Z,29.96
2018-09-29T09:06:00.878Z,30.71
2018-09-29T09:08:29.676Z,30.18
2018-09-29T09:10:58.513Z,30.14
2018-09-29T09:13:27.379Z,30.33
2018-09-29T09:15:56.212Z,31.29
2018-09-29T09:18:25.008Z,30.98
2018-09-29T09:20:53.839Z,30.57
2018-09-29T09:23:22.741Z,30.26
2018-09-29T09:25:51.589Z,29.76
2018-09-29T09:28:20.358Z,30.20
2018-09-29T09:30:49.239Z,29.31
2018-09-29T09:33:18.056Z,29.41
2018-09-29T09:35:46.876Z,30.23
2018-09-29T09:38:15.810Z,30.18
2018-09-29T09:40:44.740Z,29.08
2018-09-29T09:43:13.547Z,28.79
2018-09-29T09:45:42.450Z,29.07
2018-09-29T09:48:11.287Z,28.51
2018-09-29T09:50:40.136Z,28.70
2018-09-29T09:53:08.961Z,29.13
2018-09-29T09:55:37.776Z,28.66
2018-09-29T09:58:06.808Z,28.82
2018-09-29T10:00:40.762Z,29.55
2018-09-29T10:03:14.684Z,28.81
2018-09-29T10:05:43.683Z,28.38
2018-09-29T10:08:12.484Z,29.28
2018-09-29T10:10:42.398Z,29.20
2018-09-29T10:13:11.279Z,28.73
2018-09-29T10:15:40.104Z,28.83
2018-09-29T10:18:08.971Z,28.65
2018-09-29T10:20:37.759Z,28.88
2018-09-29T10:23:06.805Z,28.75
2018-09-29T10:25:35.597Z,27.13
2018-09-29T10:28:04.492Z,26.86
2018-09-29T10:30:33.315Z,26.26
2018-09-29T10:33:02.136Z,27.15
2018-09-29T10:35:30.933Z,27.61
2018-09-29T10:38:00.149Z,26.88
2018-09-29T10:40:28.984Z,28.06
2018-09-29T10:42:57.862Z,28.25
2018-09-29T10:45:26.741Z,27.29
2018-09-29T10:47:55.561Z,28.23
2018-09-29T10:50:24.510Z,27.38
2018-09-29T10:52:53.334Z,27.89
2018-09-29T10:55:22.431Z,27.29
2018-09-29T10:57:51.273Z,27.87
2018-09-29T11:00:20.161Z,27.87
2018-09-29T11:02:49.068Z,27.36
2018-09-29T11:05:17.900Z,27.93
2018-09-29T11:07:46.680Z,27.02
2018-09-29T11:10:15.482Z,26.63
2018-09-29T11:12:44.497Z,26.06
2018-09-29T11:15:13.500Z,25.89
2018-09-29T11:17:42.373Z,25.29
2018-09-29T11:20:11.227Z,24.82
2018-09-29T11:22:40.055Z,25.65
2018-09-29T11:25:09.340Z,24.98
2018-09-29T11:27:38.307Z,25.83
2018-09-29T11:30:07.689Z,26.49
2018-09-29T11:32:36.557Z,26.19
2018-09-29T11:35:05.646Z,26.97
2018-09-29T11:37:34.484Z,26.14
2018-09-29T11:40:03.253Z,26.70
2018-09-29T11:42:32.188Z,27.04
2018-09-29T11:45:01.013Z,27.34
2018-09-29T11:47:29.840Z,27.17
2018-09-29T11:49:58.646Z,25.71
2018-09-29T11:52:27.528Z,24.12
2018-09-29T11:54:57.019Z,24.27
2018-09-29T11:57:25.906Z,24.49
2018-09-29T11:59:54.803Z,23.84
2018-09-29T12:02:23.689Z,23.86
2018-09-29T12:04:52.644Z,24.14
2018-09-29T12:07:21.592Z,24.17
2018-09-29T12:09:50.529Z,24.53
2018-09-29T12:12:20.048Z,24.46
2018-09-29T12:14:49.344Z,25.59
2018-09-29T12:17:18.291Z,24.78
2018-09-29T12:19:47.189Z,25.54
2018-09-29T12:22:16.091Z,26.19
2018-09-29T12:24:45.164Z,26.09
2018-09-29T12:27:14.036Z,24.78
2018-09-29T12:29:43.295Z,24.70
2018-09-29T12:32:12.329Z,23.32
2018-09-29T12:34:41.232Z,24.26
2018-09-29T12:37:10.112Z,24.50
2018-09-29T12:39:39.017Z,23.81
2018-09-29T12:42:07.864Z,23.04
2018-09-29T12:44:36.766Z,22.80
2018-09-29T12:47:06.090Z,22.39
2018-09-29T12:49:35.295Z,22.64
2018-09-29T12:52:04.285Z,21.93
2018-09-29T12:54:33.277Z,22.24
2018-09-29T12:57:02.079Z,22.57
2018-09-29T12:59:30.879Z,23.00
2018-09-29T13:01:59.699Z,22.98
2018-09-29T13:04:28.604Z,23.01
2018-09-29T13:06:57.528Z,22.76
2018-09-29T13:09:26.523Z,22.27
2018-09-29T13:11:55.372Z,22.65
2018-09-29T13:14:24.236Z,21.96
2018-09-29T13:16:53.189Z,22.08
2018-09-29T13:19:22.228Z,22.42
2018-09-29T13:21:51.064Z,22.04
2018-09-29T13:24:20.041Z,20.74
2018-09-29T13:26:48.932Z,19.45
2018-09-29T13:29:17.704Z,19.24
2018-09-29T13:31:46.506Z,19.83
2018-09-29T13:34:15.515Z,18.91
2018-09-29T13:36:44.325Z,19.68
2018-09-29T13:39:13.199Z,20.15
2018-09-29T13:41:42.060Z,20.00
2018-09-29T13:44:10.902Z,20.49
2018-09-29T13:46:39.646Z,20.18
2018-09-29T13:49:08.428Z,20.26
2018-09-29T13:51:37.261Z,19.60
2018-09-29T13:54:06.230Z,19.44
2018-09-29T13:56:35.076Z,20.24
2018-09-29T13:59:03.974Z,19.81
2018-09-29T14:01:32.820Z,21.22
2018-09-29T14:04:01.689Z,20.14
2018-09-29T14:06:30.553Z,20.51
2018-09-29T14:08:59.393Z,20.81
2018-09-29T14:11:28.322Z,21.55
2018-09-29T14:13:57.252Z,22.33
2018-09-29T14:16:26.140Z,22.33
2018-09-29T14:18:54.924Z,22.59
2018-09-29T14:21:23.820Z,23.12
2018-09-29T14:23:52.656Z,23.72
2018-09-29T14:26:21.420Z,23.94
2018-09-29T14:28:50.204Z,23.92
2018-09-29T14:31:18.998Z,24.00
2018-09-29T14:33:47.825Z,24.86
2018-09-29T14:36:16.667Z,23.81
2018-09-29T14:38:45.485Z,23.88
2018-09-29T14:41:17.330Z,24.43
2018-09-29T14:43:46.105Z,24.33
2018-09-29T14:46:15.021Z,24.31
2018-09-29T14:48:43.799Z,24.59
2018-09-29T14:51:12.734Z,24.09
2018-09-29T14:53:41.713Z,24.29
2018-09-29T14:56:10.507Z,25.05
2018-09-29T14:58:39.400Z,25.02
2018-09-29T15:01:08.371Z,24.56
2018-09-29T15:03:37.216Z,24.75
2018-09-29T15:06:05.989Z,25.37
2018-09-29T15:08:34.956Z,25.81
2018-09-29T15:11:03.810Z,25.71
2018-09-29T15:13:32.677Z,24.96
2018-09-29T15:16:01.513Z,25.25
2018-09-29T15:18:30.394Z,25.52
2018-09-29T15:20:59.252Z,25.79
2018-09-29T15:23:28.149Z,25.09
2018-09-29T15:25:57.029Z,24.92
2018-09-29T15:28:26.121Z,26.09
2018-09-29T15:30:54.960Z,26.23
2018-09-29T15:33:23.882Z,26.42
2018-09-29T15:35:52.725Z,25.86
2018-09-29T15:38:21.559Z,26.84
2018-09-29T15:40:50.387Z,26.88
2018-09-29T15:43:19.216Z,26.50
2018-09-29T15:45:48.625Z,26.69
2018-09-29T15:48:17.701Z,26.42
2018-09-29T15:50:46.509Z,26.68
2018-09-29T15:53:15.294Z,27.43
2018-09-29T15:55:44.161Z,27.71
2018-09-29T15:58:13.196Z,27.35
2018-09-29T16:00:42.034Z,28.11
2018-09-29T16:03:10.861Z,29.08
2018-09-29T16:05:39.728Z,32.24
2018-09-29T16:08:08.660Z,33.83
2018-09-29T16:10:37.471Z,35.99
2018-09-29T16:13:06.404Z,35.95
2018-09-29T16:15:35.239Z,36.35
2018-09-29T16:18:04.036Z,37.43
2018-09-29T16:20:32.833Z,37.02
2018-09-29T16:23:01.685Z,37.54
2018-09-29T16:25:30.994Z,38.09
2018-09-29T16:27:59.832Z,37.94
2018-09-29T16:30:28.777Z,38.41
2018-09-29T16:32:57.709Z,38.16
2018-09-29T16:35:26.572Z,37.84
2018-09-29T16:37:55.370Z,38.95
2018-09-29T16:40:24.268Z,38.71
2018-09-29T16:42:53.069Z,39.99
2018-09-29T16:45:22.066Z,39.04
2018-09-29T16:47:51.035Z,39.14
2018-09-29T16:50:20.058Z,39.61
2018-09-29T16:52:48.962Z,39.38
2018-09-29T16:55:17.797Z,39.87
2018-09-29T16:57:46.686Z,40.09
2018-09-29T17:00:18.274Z,40.94
2018-09-29T17:02:47.069Z,40.32
2018-09-29T17:05:15.897Z,41.00
2018-09-29T17:07:44.772Z,41.51
2018-09-29T17:10:13.682Z,41.00
2018-09-29T17:12:42.708Z,41.81
2018-09-29T17:15:11.624Z,41.55
2018-09-29T17:17:40.549Z,41.36
2018-09-29T17:20:09.440Z,41.18
2018-09-29T17:22:38.360Z,41.67
2018-09-29T17:25:07.313Z,41.59
2018-09-29T17:27:36.109Z,41.72
2018-09-29T17:30:06.910Z,41.04
2018-09-29T17:32:35.833Z,41.22
2018-09-29T17:35:05.052Z,41.93
2018-09-29T17:37:34.021Z,42.36
2018-09-29T17:40:03.008Z,42.17
2018-09-29T17:42:31.898Z,41.87
2018-09-29T17:45:00.739Z,43.09
2018-09-29T17:47:29.632Z,42.54
2018-09-29T17:49:58.453Z,43.01
2018-09-29T17:52:27.396Z,42.44
2018-09-29T17:54:56.851Z,43.75
2018-09-29T17:57:27.594Z,42.79
2018-09-29T18:00:15.367Z,43.73
2018-09-29T18:03:27.888Z,43.40
2018-09-29T18:05:56.881Z,43.91
2018-09-29T18:08:25.961Z,44.28
2018-09-29T18:10:55.548Z,44.61
2018-09-29T18:13:24.567Z,44.88
2018-09-29T18:15:53.549Z,44.92
2018-09-29T18:18:22.670Z,44.54
2018-09-29T18:20:51.567Z,45.22
2018-09-29T18:23:20.597Z,46.15
2018-09-29T18:25:49.506Z,46.09
2018-09-29T18:28:18.454Z,46.73
2018-09-29T18:30:47.338Z,46.59
2018-09-29T18:33:16.155Z,47.40
2018-09-29T18:35:45.034Z,47.66
2018-09-29T18:38:20.601Z,47.27
2018-09-29T18:40:49.588Z,47.99
2018-09-29T18:43:18.421Z,47.42
2018-09-29T18:45:47.297Z,48.02
2018-09-29T18:48:16.380Z,48.19
2018-09-29T18:50:45.659Z,48.28
2018-09-29T18:53:14.966Z,48.87
2018-09-29T18:55:43.964Z,49.41
2018-09-29T18:58:12.902Z,48.92
2018-09-29T19:00:41.911Z,49.17
2018-09-29T19:03:10.846Z,49.07
2018-09-29T19:05:46.420Z,49.43
2018-09-29T19:08:15.300Z,49.98
2018-09-29T19:10:44.171Z,50.03
2018-09-29T19:13:13.096Z,49.86
2018-09-29T19:15:41.987Z,50.12
2018-09-29T19:18:10.793Z,50.31
2018-09-29T19:20:39.737Z,49.93
2018-09-29T19:23:08.555Z,50.77
2018-09-29T19:25:37.486Z,50.63
2018-09-29T19:28:06.287Z,51.27
2018-09-29T19:30:35.099Z,50.51
2018-09-29T19:33:03.948Z,50.67
2018-09-29T19:35:32.848Z,50.91
2018-09-29T19:38:01.708Z,50.57
2018-09-29T19:40:30.509Z,50.55
2018-09-29T19:42:59.331Z,51.11
2018-09-29T19:45:28.259Z,50.68
2018-09-29T19:47:57.206Z,50.78
2018-09-29T19:50:26.120Z,51.31
2018-09-29T19:52:55.093Z,51.35
2018-09-29T19:55:23.921Z,51.38
2018-09-29T19:57:52.904Z,52.23
2018-09-29T20:00:21.739Z,51.81
2018-09-29T20:02:50.731Z,52.30
2018-09-29T20:05:19.602Z,52.29
2018-09-29T20:07:48.550Z,51.82
2018-09-29T20:10:17.605Z,51.98
2018-09-29T20:12:46.733Z,52.06
2018-09-29T20:15:16.077Z,52.08
2018-09-29T20:17:44.958Z,52.96
2018-09-29T20:20:13.882Z,52.64
2018-09-29T20:22:42.726Z,53.09
2018-09-29T20:25:12.250Z,53.35
2018-09-29T20:27:41.213Z,53.31
2018-09-29T20:30:10.224Z,52.92
2018-09-29T20:32:39.064Z,53.16
2018-09-29T20:35:08.393Z,53.41
2018-09-29T20:37:37.238Z,53.75
2018-09-29T20:40:06.208Z,53.39
2018-09-29T20:42:35.100Z,53.87
2018-09-29T20:45:04.010Z,53.34
2018-09-29T20:47:32.840Z,53.46
2018-09-29T20:50:01.714Z,53.39
2018-09-29T20:52:31.250Z,53.96
2018-09-29T20:55:00.317Z,54.34
2018-09-29T20:57:29.404Z,54.38
2018-09-29T20:59:58.486Z,54.79
2018-09-29T21:02:27.775Z,54.71
2018-09-29T21:04:56.820Z,54.04
2018-09-29T21:07:25.723Z,54.08
2018-09-29T21:09:54.578Z,54.46
2018-09-29T21:12:24.020Z,54.25
2018-09-29T21:14:52.875Z,55.00
2018-09-29T21:17:21.812Z,54.45
2018-09-29T21:19:50.692Z,55.60
2018-09-29T21:22:19.521Z,55.59
2018-09-29T21:24:48.395Z,55.22
2018-09-29T21:27:17.263Z,55.93
2018-09-29T21:29:46.052Z,55.67
2018-09-29T21:32:14.820Z,55.38
2018-09-29T21:34:43.612Z,55.69
2018-09-29T21:37:12.482Z,56.42
2018-09-29T21:39:41.722Z,56.41
2018-09-29T21:42:10.723Z,56.15
2018-09-29T21:44:39.765Z,56.83
2018-09-29T21:47:08.598Z,56.89
2018-09-29T21:49:37.387Z,57.23
2018-09-29T21:52:06.389Z,56.77
2018-09-29T21:54:35.297Z,56.34
2018-09-29T21:57:04.135Z,57.08
2018-09-29T21:59:33.000Z,56.54
2018-09-29T22:02:01.825Z,56.81
2018-09-29T22:04:30.683Z,57.12
2018-09-29T22:06:59.631Z,56.79
2018-09-29T22:09:28.441Z,56.50
2018-09-29T22:11:57.261Z,57.02
2018-09-29T22:14:26.057Z,56.61
2018-09-29T22:16:54.902Z,56.63
2018-09-29T22:19:23.724Z,57.31
2018-09-29T22:21:52.612Z,57.33
2018-09-29T22:24:21.431Z,56.49
2018-09-29T22:26:50.292Z,57.10
2018-09-29T22:29:19.109Z,57.35
2018-09-29T22:31:48.005Z,57.48
2018-09-29T22:34:16.969Z,56.96
2018-09-29T22:36:45.913Z,57.54
2018-09-29T22:39:14.779Z,57.77
2018-09-29T22:41:43.579Z,56.99
2018-09-29T22:44:12.516Z,57.70
2018-09-29T22:46:41.474Z,58.08
2018-09-29T22:49:10.328Z,57.75
2018-09-29T22:51:39.941Z,57.35
2018-09-29T22:54:08.720Z,57.15
2018-09-29T22:56:37.559Z,56.96
2018-09-29T22:59:06.411Z,57.02
2018-09-29T23:01:35.341Z,57.46
2018-09-29T23:04:04.214Z,57.71
2018-09-29T23:06:33.226Z,58.09
2018-09-29T23:09:02.059Z,58.16
2018-09-29T23:11:30.915Z,58.26
2018-09-29T23:14:00.060Z,57.56
2018-09-29T23:16:28.863Z,57.64
2018-09-29T23:18:57.752Z,58.15
2018-09-29T23:21:26.799Z,57.60
2018-09-29T23:23:55.680Z,57.72
2018-09-29T23:26:24.636Z,57.87
2018-09-29T23:28:53.431Z,57.89
2018-09-29T23:31:22.336Z,58.94
2018-09-29T23:33:51.176Z,58.16
2018-09-29T23:36:19.976Z,58.23
2018-09-29T23:38:48.964Z,58.96
2018-09-29T23:41:17.988Z,58.51
2018-09-29T23:43:46.947Z,59.52
2018-09-29T23:46:15.855Z,58.71
2018-09-29T23:48:44.721Z,58.97
2018-09-29T23:51:13.525Z,59.65
2018-09-29T23:53:42.359Z,59.86
2018-09-29T23:56:11.171Z,59.36
2018-09-29T23:58:40.040Z,59.44
